sensor_id;sensor_type;location;lat;lon;timestamp;P1;durP1;ratioP1;P2;durP2;ratioP2
60730;SDS011;46580;52.114;11.674;2022-12-17T00:00:42;41.78;;;22.05;;
60730;SDS011;46580;52.114;11.674;2022-12-17T00:03:26;42.22;;;22.63;;
60730;SDS011;46580;52.114;11.674;2022-12-17T00:06:10;37.33;;;20.88;;
60730;SDS011;46580;52.114;11.674;2022-12-17T00:08:55;37.80;;;22.05;;
60730;SDS011;46580;52.114;11.674;2022-12-17T00:11:39;43.22;;;21.20;;
60730;SDS011;46580;52.114;11.674;2022-12-17T00:14:23;44.77;;;23.43;;
60730;SDS011;46580;52.114;11.674;2022-12-17T00:17:07;43.92;;;22.52;;
60730;SDS011;46580;52.114;11.674;2022-12-17T00:19:51;38.78;;;21.88;;
60730;SDS011;46580;52.114;11.674;2022-12-17T00:22:34;40.90;;;20.90;;
60730;SDS011;46580;52.114;11.674;2022-12-17T00:25:18;37.90;;;21.25;;
60730;SDS011;46580;52.114;11.674;2022-12-17T00:28:02;39.40;;;21.08;;
60730;SDS011;46580;52.114;11.674;2022-12-17T00:30:51;38.83;;;22.23;;
60730;SDS011;46580;52.114;11.674;2022-12-17T00:33:35;51.78;;;23.13;;
60730;SDS011;46580;52.114;11.674;2022-12-17T00:36:19;50.28;;;24.15;;
60730;SDS011;46580;52.114;11.674;2022-12-17T00:39:03;43.17;;;22.80;;
60730;SDS011;46580;52.114;11.674;2022-12-17T00:41:47;44.17;;;23.08;;
60730;SDS011;46580;52.114;11.674;2022-12-17T00:44:30;45.50;;;22.88;;
60730;SDS011;46580;52.114;11.674;2022-12-17T00:47:14;39.03;;;21.92;;
60730;SDS011;46580;52.114;11.674;2022-12-17T00:49:58;42.65;;;23.70;;
60730;SDS011;46580;52.114;11.674;2022-12-17T00:52:42;46.15;;;23.08;;
60730;SDS011;46580;52.114;11.674;2022-12-17T00:55:26;46.75;;;23.65;;
60730;SDS011;46580;52.114;11.674;2022-12-17T00:58:17;49.55;;;24.13;;
60730;SDS011;46580;52.114;11.674;2022-12-17T01:01:01;50.22;;;22.77;;
60730;SDS011;46580;52.114;11.674;2022-12-17T01:03:45;39.90;;;22.40;;
60730;SDS011;46580;52.114;11.674;2022-12-17T01:06:29;44.17;;;23.80;;
60730;SDS011;46580;52.114;11.674;2022-12-17T01:09:13;43.45;;;22.17;;
60730;SDS011;46580;52.114;11.674;2022-12-17T01:11:57;43.22;;;21.60;;
60730;SDS011;46580;52.114;11.674;2022-12-17T01:14:41;37.00;;;21.30;;
60730;SDS011;46580;52.114;11.674;2022-12-17T01:17:24;45.42;;;22.38;;
60730;SDS011;46580;52.114;11.674;2022-12-17T01:20:08;40.17;;;22.48;;
60730;SDS011;46580;52.114;11.674;2022-12-17T01:22:53;39.03;;;21.13;;
60730;SDS011;46580;52.114;11.674;2022-12-17T01:25:37;42.55;;;21.73;;
60730;SDS011;46580;52.114;11.674;2022-12-17T01:28:24;41.13;;;21.38;;
60730;SDS011;46580;52.114;11.674;2022-12-17T01:31:10;43.03;;;20.77;;
60730;SDS011;46580;52.114;11.674;2022-12-17T01:33:54;49.78;;;24.83;;
60730;SDS011;46580;52.114;11.674;2022-12-17T01:36:38;42.10;;;21.30;;
60730;SDS011;46580;52.114;11.674;2022-12-17T01:39:23;41.22;;;19.80;;
60730;SDS011;46580;52.114;11.674;2022-12-17T01:42:15;42.28;;;21.58;;
60730;SDS011;46580;52.114;11.674;2022-12-17T01:45:00;46.13;;;21.50;;
60730;SDS011;46580;52.114;11.674;2022-12-17T01:47:49;37.78;;;20.17;;
60730;SDS011;46580;52.114;11.674;2022-12-17T01:50:43;41.95;;;19.65;;
60730;SDS011;46580;52.114;11.674;2022-12-17T01:53:40;45.75;;;20.42;;
60730;SDS011;46580;52.114;11.674;2022-12-17T01:56:27;37.97;;;19.67;;
60730;SDS011;46580;52.114;11.674;2022-12-17T01:59:12;38.85;;;18.55;;
60730;SDS011;46580;52.114;11.674;2022-12-17T02:01:57;36.20;;;19.15;;
60730;SDS011;46580;52.114;11.674;2022-12-17T02:04:42;42.72;;;19.70;;
60730;SDS011;46580;52.114;11.674;2022-12-17T02:07:39;42.80;;;21.13;;
60730;SDS011;46580;52.114;11.674;2022-12-17T02:10:45;41.65;;;20.80;;
60730;SDS011;46580;52.114;11.674;2022-12-17T02:13:56;39.97;;;19.77;;
60730;SDS011;46580;52.114;11.674;2022-12-17T02:17:02;47.58;;;21.90;;
60730;SDS011;46580;52.114;11.674;2022-12-17T02:25:59;47.15;;;23.05;;
60730;SDS011;46580;52.114;11.674;2022-12-17T02:29:00;44.40;;;20.58;;
60730;SDS011;46580;52.114;11.674;2022-12-17T02:31:47;47.38;;;23.67;;
60730;SDS011;46580;52.114;11.674;2022-12-17T02:34:46;58.13;;;23.80;;
60730;SDS011;46580;52.114;11.674;2022-12-17T02:37:31;52.47;;;24.95;;
60730;SDS011;46580;52.114;11.674;2022-12-17T02:40:15;51.92;;;24.35;;
60730;SDS011;46580;52.114;11.674;2022-12-17T02:43:01;60.40;;;25.58;;
60730;SDS011;46580;52.114;11.674;2022-12-17T02:45:46;63.35;;;25.83;;
60730;SDS011;46580;52.114;11.674;2022-12-17T02:48:31;55.70;;;24.92;;
60730;SDS011;46580;52.114;11.674;2022-12-17T02:51:16;61.70;;;27.08;;
60730;SDS011;46580;52.114;11.674;2022-12-17T02:54:08;47.63;;;24.35;;
60730;SDS011;46580;52.114;11.674;2022-12-17T02:56:52;63.03;;;26.00;;
60730;SDS011;46580;52.114;11.674;2022-12-17T02:59:36;54.42;;;25.02;;
60730;SDS011;46580;52.114;11.674;2022-12-17T03:02:20;58.88;;;24.73;;
60730;SDS011;46580;52.114;11.674;2022-12-17T03:05:04;60.08;;;25.90;;
60730;SDS011;46580;52.114;11.674;2022-12-17T03:07:48;57.28;;;25.95;;
60730;SDS011;46580;52.114;11.674;2022-12-17T03:10:32;82.10;;;31.08;;
60730;SDS011;46580;52.114;11.674;2022-12-17T03:13:21;61.05;;;26.80;;
60730;SDS011;46580;52.114;11.674;2022-12-17T03:16:09;77.80;;;31.98;;
60730;SDS011;46580;52.114;11.674;2022-12-17T03:18:55;60.15;;;27.17;;
60730;SDS011;46580;52.114;11.674;2022-12-17T03:21:40;84.40;;;31.45;;
60730;SDS011;46580;52.114;11.674;2022-12-17T03:24:24;72.50;;;29.92;;
60730;SDS011;46580;52.114;11.674;2022-12-17T03:27:08;69.82;;;29.88;;
60730;SDS011;46580;52.114;11.674;2022-12-17T03:29:53;68.95;;;27.88;;
60730;SDS011;46580;52.114;11.674;2022-12-17T03:32:37;65.03;;;27.02;;
60730;SDS011;46580;52.114;11.674;2022-12-17T03:35:21;65.05;;;26.45;;
60730;SDS011;46580;52.114;11.674;2022-12-17T03:38:06;58.70;;;25.88;;
60730;SDS011;46580;52.114;11.674;2022-12-17T03:40:56;65.82;;;28.00;;
60730;SDS011;46580;52.114;11.674;2022-12-17T03:43:40;46.97;;;18.30;;
60730;SDS011;46580;52.114;11.674;2022-12-17T03:46:25;49.88;;;23.15;;
60730;SDS011;46580;52.114;11.674;2022-12-17T03:49:09;59.85;;;26.02;;
60730;SDS011;46580;52.114;11.674;2022-12-17T03:51:53;52.72;;;26.10;;
60730;SDS011;46580;52.114;11.674;2022-12-17T03:54:38;55.85;;;25.27;;
60730;SDS011;46580;52.114;11.674;2022-12-17T03:57:22;59.05;;;27.88;;
60730;SDS011;46580;52.114;11.674;2022-12-17T04:00:06;61.90;;;26.85;;
60730;SDS011;46580;52.114;11.674;2022-12-17T04:02:50;60.60;;;27.23;;
60730;SDS011;46580;52.114;11.674;2022-12-17T04:05:35;63.15;;;26.98;;
60730;SDS011;46580;52.114;11.674;2022-12-17T04:08:19;49.17;;;23.25;;
60730;SDS011;46580;52.114;11.674;2022-12-17T04:11:03;53.45;;;24.17;;
60730;SDS011;46580;52.114;11.674;2022-12-17T04:13:48;58.60;;;26.08;;
60730;SDS011;46580;52.114;11.674;2022-12-17T04:16:32;48.60;;;25.13;;
60730;SDS011;46580;52.114;11.674;2022-12-17T04:19:16;61.25;;;24.10;;
60730;SDS011;46580;52.114;11.674;2022-12-17T04:22:00;61.22;;;26.27;;
60730;SDS011;46580;52.114;11.674;2022-12-17T04:24:44;57.53;;;25.00;;
60730;SDS011;46580;52.114;11.674;2022-12-17T04:27:28;52.28;;;24.65;;
60730;SDS011;46580;52.114;11.674;2022-12-17T04:30:12;50.90;;;23.45;;
60730;SDS011;46580;52.114;11.674;2022-12-17T04:32:56;48.63;;;24.50;;
60730;SDS011;46580;52.114;11.674;2022-12-17T04:35:41;50.97;;;25.17;;
60730;SDS011;46580;52.114;11.674;2022-12-17T04:38:25;60.35;;;25.95;;
60730;SDS011;46580;52.114;11.674;2022-12-17T04:41:09;54.03;;;26.10;;
60730;SDS011;46580;52.114;11.674;2022-12-17T04:43:54;51.20;;;23.13;;
60730;SDS011;46580;52.114;11.674;2022-12-17T04:46:38;49.50;;;24.55;;
60730;SDS011;46580;52.114;11.674;2022-12-17T04:49:23;46.50;;;23.45;;
60730;SDS011;46580;52.114;11.674;2022-12-17T04:52:06;56.42;;;25.98;;
60730;SDS011;46580;52.114;11.674;2022-12-17T04:54:50;49.35;;;23.10;;
60730;SDS011;46580;52.114;11.674;2022-12-17T04:57:34;50.70;;;22.85;;
60730;SDS011;46580;52.114;11.674;2022-12-17T05:00:19;50.15;;;23.08;;
60730;SDS011;46580;52.114;11.674;2022-12-17T05:03:08;53.60;;;24.55;;
60730;SDS011;46580;52.114;11.674;2022-12-17T05:05:55;47.08;;;23.20;;
60730;SDS011;46580;52.114;11.674;2022-12-17T05:08:39;46.40;;;21.00;;
60730;SDS011;46580;52.114;11.674;2022-12-17T05:11:23;51.78;;;24.73;;
60730;SDS011;46580;52.114;11.674;2022-12-17T05:14:07;57.38;;;24.65;;
60730;SDS011;46580;52.114;11.674;2022-12-17T05:16:51;40.95;;;18.90;;
60730;SDS011;46580;52.114;11.674;2022-12-17T05:19:35;57.20;;;26.40;;
60730;SDS011;46580;52.114;11.674;2022-12-17T05:22:19;54.05;;;23.48;;
60730;SDS011;46580;52.114;11.674;2022-12-17T05:25:03;56.83;;;25.10;;
60730;SDS011;46580;52.114;11.674;2022-12-17T05:27:47;52.58;;;23.95;;
60730;SDS011;46580;52.114;11.674;2022-12-17T05:30:31;57.85;;;23.02;;
60730;SDS011;46580;52.114;11.674;2022-12-17T05:33:15;83.15;;;26.63;;
60730;SDS011;46580;52.114;11.674;2022-12-17T05:35:59;62.63;;;24.70;;
60730;SDS011;46580;52.114;11.674;2022-12-17T05:38:44;57.63;;;23.85;;
60730;SDS011;46580;52.114;11.674;2022-12-17T05:41:31;59.95;;;25.13;;
60730;SDS011;46580;52.114;11.674;2022-12-17T05:44:15;52.20;;;24.23;;
60730;SDS011;46580;52.114;11.674;2022-12-17T05:46:59;69.00;;;25.48;;
60730;SDS011;46580;52.114;11.674;2022-12-17T05:49:43;53.17;;;24.80;;
60730;SDS011;46580;52.114;11.674;2022-12-17T05:52:27;54.28;;;25.50;;
60730;SDS011;46580;52.114;11.674;2022-12-17T05:55:10;59.60;;;25.55;;
60730;SDS011;46580;52.114;11.674;2022-12-17T05:58:02;58.78;;;24.35;;
60730;SDS011;46580;52.114;11.674;2022-12-17T06:00:54;70.53;;;24.80;;
60730;SDS011;46580;52.114;11.674;2022-12-17T06:03:41;57.83;;;23.45;;
60730;SDS011;46580;52.114;11.674;2022-12-17T06:06:26;71.70;;;27.35;;
60730;SDS011;46580;52.114;11.674;2022-12-17T06:09:10;56.83;;;25.55;;
60730;SDS011;46580;52.114;11.674;2022-12-17T06:11:54;56.25;;;23.75;;
60730;SDS011;46580;52.114;11.674;2022-12-17T06:14:38;53.25;;;24.90;;
60730;SDS011;46580;52.114;11.674;2022-12-17T06:17:22;52.45;;;23.85;;
60730;SDS011;46580;52.114;11.674;2022-12-17T06:20:06;61.15;;;23.23;;
60730;SDS011;46580;52.114;11.674;2022-12-17T06:23:01;54.50;;;24.05;;
60730;SDS011;46580;52.114;11.674;2022-12-17T06:25:52;54.35;;;21.80;;
60730;SDS011;46580;52.114;11.674;2022-12-17T06:28:37;55.80;;;23.27;;
60730;SDS011;46580;52.114;11.674;2022-12-17T06:31:21;62.22;;;24.50;;
60730;SDS011;46580;52.114;11.674;2022-12-17T06:34:05;72.13;;;27.05;;
60730;SDS011;46580;52.114;11.674;2022-12-17T06:36:49;63.70;;;25.50;;
60730;SDS011;46580;52.114;11.674;2022-12-17T06:39:33;62.47;;;24.60;;
60730;SDS011;46580;52.114;11.674;2022-12-17T06:42:17;62.15;;;24.58;;
60730;SDS011;46580;52.114;11.674;2022-12-17T06:45:01;70.53;;;24.38;;
60730;SDS011;46580;52.114;11.674;2022-12-17T06:47:44;65.47;;;23.42;;
60730;SDS011;46580;52.114;11.674;2022-12-17T06:50:28;57.20;;;23.42;;
60730;SDS011;46580;52.114;11.674;2022-12-17T06:53:13;60.85;;;23.75;;
60730;SDS011;46580;52.114;11.674;2022-12-17T06:55:57;67.20;;;23.05;;
60730;SDS011;46580;52.114;11.674;2022-12-17T06:58:41;47.45;;;21.45;;
60730;SDS011;46580;52.114;11.674;2022-12-17T07:01:26;52.08;;;21.38;;
60730;SDS011;46580;52.114;11.674;2022-12-17T07:04:12;48.85;;;18.80;;
60730;SDS011;46580;52.114;11.674;2022-12-17T07:06:55;64.95;;;22.50;;
60730;SDS011;46580;52.114;11.674;2022-12-17T07:09:41;63.30;;;22.50;;
60730;SDS011;46580;52.114;11.674;2022-12-17T07:12:26;52.22;;;22.55;;
60730;SDS011;46580;52.114;11.674;2022-12-17T07:15:10;65.25;;;22.42;;
60730;SDS011;46580;52.114;11.674;2022-12-17T07:18:01;66.45;;;22.30;;
60730;SDS011;46580;52.114;11.674;2022-12-17T07:20:46;64.70;;;23.77;;
60730;SDS011;46580;52.114;11.674;2022-12-17T07:23:31;67.03;;;24.02;;
60730;SDS011;46580;52.114;11.674;2022-12-17T07:26:15;69.80;;;27.15;;
60730;SDS011;46580;52.114;11.674;2022-12-17T07:29:00;71.90;;;26.45;;
60730;SDS011;46580;52.114;11.674;2022-12-17T07:31:44;80.85;;;26.23;;
60730;SDS011;46580;52.114;11.674;2022-12-17T07:34:28;79.70;;;26.48;;
60730;SDS011;46580;52.114;11.674;2022-12-17T07:37:12;77.20;;;25.25;;
60730;SDS011;46580;52.114;11.674;2022-12-17T07:39:56;66.32;;;23.17;;
60730;SDS011;46580;52.114;11.674;2022-12-17T07:42:40;57.22;;;20.20;;
60730;SDS011;46580;52.114;11.674;2022-12-17T07:45:25;72.55;;;22.85;;
60730;SDS011;46580;52.114;11.674;2022-12-17T07:48:09;56.40;;;22.13;;
60730;SDS011;46580;52.114;11.674;2022-12-17T07:50:53;60.33;;;22.20;;
60730;SDS011;46580;52.114;11.674;2022-12-17T07:53:38;58.72;;;21.17;;
60730;SDS011;46580;52.114;11.674;2022-12-17T07:56:22;81.57;;;22.85;;
60730;SDS011;46580;52.114;11.674;2022-12-17T07:59:06;76.88;;;24.10;;
60730;SDS011;46580;52.114;11.674;2022-12-17T08:01:51;62.53;;;21.65;;
60730;SDS011;46580;52.114;11.674;2022-12-17T08:04:34;59.00;;;22.00;;
60730;SDS011;46580;52.114;11.674;2022-12-17T08:07:18;53.05;;;17.92;;
60730;SDS011;46580;52.114;11.674;2022-12-17T08:10:03;62.20;;;21.08;;
60730;SDS011;46580;52.114;11.674;2022-12-17T08:12:54;64.88;;;22.80;;
60730;SDS011;46580;52.114;11.674;2022-12-17T08:15:39;76.55;;;22.90;;
60730;SDS011;46580;52.114;11.674;2022-12-17T08:18:23;81.07;;;25.08;;
60730;SDS011;46580;52.114;11.674;2022-12-17T08:21:08;67.65;;;23.27;;
60730;SDS011;46580;52.114;11.674;2022-12-17T08:23:52;62.20;;;20.33;;
60730;SDS011;46580;52.114;11.674;2022-12-17T08:26:36;40.60;;;15.73;;
60730;SDS011;46580;52.114;11.674;2022-12-17T08:29:20;60.47;;;21.88;;
60730;SDS011;46580;52.114;11.674;2022-12-17T08:32:05;68.05;;;22.15;;
60730;SDS011;46580;52.114;11.674;2022-12-17T08:34:49;64.15;;;20.17;;
60730;SDS011;46580;52.114;11.674;2022-12-17T08:37:33;65.03;;;20.13;;
60730;SDS011;46580;52.114;11.674;2022-12-17T08:40:17;55.88;;;21.50;;
60730;SDS011;46580;52.114;11.674;2022-12-17T08:43:01;65.70;;;22.25;;
60730;SDS011;46580;52.114;11.674;2022-12-17T08:45:49;65.32;;;21.05;;
60730;SDS011;46580;52.114;11.674;2022-12-17T08:48:34;56.30;;;20.48;;
60730;SDS011;46580;52.114;11.674;2022-12-17T08:51:19;52.45;;;19.85;;
60730;SDS011;46580;52.114;11.674;2022-12-17T08:54:03;57.10;;;21.38;;
60730;SDS011;46580;52.114;11.674;2022-12-17T08:56:48;59.20;;;21.73;;
60730;SDS011;46580;52.114;11.674;2022-12-17T08:59:32;69.78;;;22.65;;
60730;SDS011;46580;52.114;11.674;2022-12-17T09:02:17;70.47;;;21.98;;
60730;SDS011;46580;52.114;11.674;2022-12-17T09:05:01;74.43;;;25.42;;
60730;SDS011;46580;52.114;11.674;2022-12-17T09:07:45;70.57;;;21.75;;
60730;SDS011;46580;52.114;11.674;2022-12-17T09:10:28;75.65;;;25.67;;
60730;SDS011;46580;52.114;11.674;2022-12-17T09:13:29;66.22;;;23.45;;
60730;SDS011;46580;52.114;11.674;2022-12-17T09:16:14;81.43;;;24.52;;
60730;SDS011;46580;52.114;11.674;2022-12-17T09:18:58;63.38;;;21.88;;
60730;SDS011;46580;52.114;11.674;2022-12-17T09:21:42;75.18;;;21.63;;
60730;SDS011;46580;52.114;11.674;2022-12-17T09:24:26;74.57;;;21.90;;
60730;SDS011;46580;52.114;11.674;2022-12-17T09:27:10;68.88;;;21.73;;
60730;SDS011;46580;52.114;11.674;2022-12-17T09:29:56;66.32;;;22.50;;
60730;SDS011;46580;52.114;11.674;2022-12-17T09:32:40;67.53;;;21.30;;
60730;SDS011;46580;52.114;11.674;2022-12-17T09:35:24;79.40;;;24.83;;
60730;SDS011;46580;52.114;11.674;2022-12-17T09:38:16;63.40;;;20.92;;
60730;SDS011;46580;52.114;11.674;2022-12-17T09:50:14;51.97;;;18.10;;
60730;SDS011;46580;52.114;11.674;2022-12-17T09:53:01;61.88;;;18.40;;
60730;SDS011;46580;52.114;11.674;2022-12-17T09:55:52;50.38;;;16.88;;
60730;SDS011;46580;52.114;11.674;2022-12-17T09:58:37;78.18;;;22.20;;
60730;SDS011;46580;52.114;11.674;2022-12-17T10:01:23;67.13;;;19.55;;
60730;SDS011;46580;52.114;11.674;2022-12-17T10:04:15;60.35;;;21.52;;
60730;SDS011;46580;52.114;11.674;2022-12-17T10:07:03;59.60;;;20.42;;
60730;SDS011;46580;52.114;11.674;2022-12-17T10:09:56;67.63;;;21.40;;
60730;SDS011;46580;52.114;11.674;2022-12-17T10:12:43;62.15;;;22.02;;
60730;SDS011;46580;52.114;11.674;2022-12-17T10:15:26;62.42;;;19.75;;
60730;SDS011;46580;52.114;11.674;2022-12-17T10:18:10;60.00;;;19.35;;
60730;SDS011;46580;52.114;11.674;2022-12-17T10:20:57;77.85;;;21.35;;
60730;SDS011;46580;52.114;11.674;2022-12-17T10:23:43;80.10;;;22.05;;
60730;SDS011;46580;52.114;11.674;2022-12-17T10:26:29;63.90;;;20.65;;
60730;SDS011;46580;52.114;11.674;2022-12-17T10:29:15;69.50;;;21.33;;
60730;SDS011;46580;52.114;11.674;2022-12-17T10:34:58;74.13;;;22.35;;
60730;SDS011;46580;52.114;11.674;2022-12-17T10:37:44;77.80;;;22.65;;
60730;SDS011;46580;52.114;11.674;2022-12-17T10:40:30;73.60;;;24.65;;
60730;SDS011;46580;52.114;11.674;2022-12-17T10:43:26;78.70;;;24.17;;
60730;SDS011;46580;52.114;11.674;2022-12-17T10:46:28;72.32;;;23.92;;
60730;SDS011;46580;52.114;11.674;2022-12-17T10:49:15;83.80;;;25.75;;
60730;SDS011;46580;52.114;11.674;2022-12-17T10:52:16;78.18;;;26.02;;
60730;SDS011;46580;52.114;11.674;2022-12-17T10:55:04;67.85;;;21.15;;
60730;SDS011;46580;52.114;11.674;2022-12-17T10:57:49;57.47;;;20.20;;
60730;SDS011;46580;52.114;11.674;2022-12-17T11:00:40;66.28;;;22.73;;
60730;SDS011;46580;52.114;11.674;2022-12-17T11:06:45;73.55;;;21.80;;
60730;SDS011;46580;52.114;11.674;2022-12-17T11:09:50;69.03;;;23.13;;
60730;SDS011;46580;52.114;11.674;2022-12-17T11:12:41;88.50;;;24.95;;
60730;SDS011;46580;52.114;11.674;2022-12-17T11:15:52;61.95;;;20.98;;
60730;SDS011;46580;52.114;11.674;2022-12-17T11:21:28;76.38;;;24.80;;
60730;SDS011;46580;52.114;11.674;2022-12-17T11:24:17;61.92;;;20.42;;
60730;SDS011;46580;52.114;11.674;2022-12-17T11:27:26;76.95;;;21.00;;
60730;SDS011;46580;52.114;11.674;2022-12-17T11:30:15;66.85;;;20.30;;
60730;SDS011;46580;52.114;11.674;2022-12-17T11:36:16;74.55;;;20.70;;
60730;SDS011;46580;52.114;11.674;2022-12-17T11:42:04;67.70;;;21.73;;
60730;SDS011;46580;52.114;11.674;2022-12-17T11:48:04;61.45;;;21.27;;
60730;SDS011;46580;52.114;11.674;2022-12-17T11:50:56;79.45;;;23.02;;
60730;SDS011;46580;52.114;11.674;2022-12-17T11:56:44;70.97;;;22.30;;
60730;SDS011;46580;52.114;11.674;2022-12-17T11:59:44;63.90;;;21.13;;
60730;SDS011;46580;52.114;11.674;2022-12-17T12:18:12;59.72;;;21.10;;
60730;SDS011;46580;52.114;11.674;2022-12-17T12:24:28;71.50;;;20.92;;
60730;SDS011;46580;52.114;11.674;2022-12-17T12:30:17;64.60;;;22.65;;
60730;SDS011;46580;52.114;11.674;2022-12-17T12:36:03;64.40;;;22.15;;
60730;SDS011;46580;52.114;11.674;2022-12-17T12:38:54;67.47;;;23.75;;
60730;SDS011;46580;52.114;11.674;2022-12-17T12:45:02;55.15;;;20.60;;
60730;SDS011;46580;52.114;11.674;2022-12-17T12:47:59;61.90;;;20.48;;
60730;SDS011;46580;52.114;11.674;2022-12-17T12:54:20;69.60;;;21.67;;
60730;SDS011;46580;52.114;11.674;2022-12-17T13:00:20;71.65;;;21.35;;
60730;SDS011;46580;52.114;11.674;2022-12-17T13:03:23;64.72;;;20.90;;
60730;SDS011;46580;52.114;11.674;2022-12-17T13:06:08;59.88;;;20.80;;
60730;SDS011;46580;52.114;11.674;2022-12-17T13:08:34;58.83;;;19.92;;
60730;SDS011;46580;52.114;11.674;2022-12-17T13:11:29;57.45;;;20.23;;
60730;SDS011;46580;52.114;11.674;2022-12-17T13:13:56;71.40;;;20.83;;
60730;SDS011;46580;52.114;11.674;2022-12-17T13:16:32;56.97;;;19.17;;
60730;SDS011;46580;52.114;11.674;2022-12-17T13:19:30;86.22;;;24.13;;
60730;SDS011;46580;52.114;11.674;2022-12-17T13:24:40;61.88;;;21.08;;
60730;SDS011;46580;52.114;11.674;2022-12-17T13:29:55;69.53;;;22.05;;
60730;SDS011;46580;52.114;11.674;2022-12-17T13:32:23;52.53;;;19.55;;
60730;SDS011;46580;52.114;11.674;2022-12-17T13:37:58;71.78;;;20.45;;
60730;SDS011;46580;52.114;11.674;2022-12-17T13:40:45;89.30;;;23.15;;
60730;SDS011;46580;52.114;11.674;2022-12-17T13:43:24;68.07;;;22.15;;
60730;SDS011;46580;52.114;11.674;2022-12-17T13:45:55;66.15;;;21.00;;
60730;SDS011;46580;52.114;11.674;2022-12-17T13:48:23;85.80;;;25.73;;
60730;SDS011;46580;52.114;11.674;2022-12-17T13:50:52;73.70;;;22.75;;
60730;SDS011;46580;52.114;11.674;2022-12-17T13:53:19;84.45;;;22.77;;
60730;SDS011;46580;52.114;11.674;2022-12-17T13:55:48;69.57;;;19.50;;
60730;SDS011;46580;52.114;11.674;2022-12-17T13:58:49;77.35;;;23.38;;
60730;SDS011;46580;52.114;11.674;2022-12-17T14:01:09;63.60;;;19.08;;
60730;SDS011;46580;52.114;11.674;2022-12-17T14:03:37;75.70;;;24.33;;
60730;SDS011;46580;52.114;11.674;2022-12-17T14:06:03;63.53;;;22.50;;
60730;SDS011;46580;52.114;11.674;2022-12-17T14:08:33;67.97;;;22.90;;
60730;SDS011;46580;52.114;11.674;2022-12-17T14:10:59;75.73;;;24.03;;
60730;SDS011;46580;52.114;11.674;2022-12-17T14:13:45;86.60;;;23.40;;
60730;SDS011;46580;52.114;11.674;2022-12-17T14:16:15;80.03;;;25.30;;
60730;SDS011;46580;52.114;11.674;2022-12-17T14:18:47;70.80;;;27.42;;
60730;SDS011;46580;52.114;11.674;2022-12-17T14:21:15;78.95;;;27.65;;
60730;SDS011;46580;52.114;11.674;2022-12-17T14:23:41;77.60;;;24.60;;
60730;SDS011;46580;52.114;11.674;2022-12-17T14:26:10;88.30;;;27.50;;
60730;SDS011;46580;52.114;11.674;2022-12-17T14:28:50;85.03;;;27.75;;
60730;SDS011;46580;52.114;11.674;2022-12-17T14:33:59;79.93;;;26.50;;
60730;SDS011;46580;52.114;11.674;2022-12-17T14:36:31;74.72;;;26.30;;
60730;SDS011;46580;52.114;11.674;2022-12-17T14:39:03;85.78;;;26.75;;
60730;SDS011;46580;52.114;11.674;2022-12-17T14:41:38;69.70;;;25.10;;
60730;SDS011;46580;52.114;11.674;2022-12-17T14:44:24;120.45;;;31.33;;
60730;SDS011;46580;52.114;11.674;2022-12-17T14:47:12;74.03;;;26.17;;
60730;SDS011;46580;52.114;11.674;2022-12-17T15:03:37;83.35;;;25.65;;
60730;SDS011;46580;52.114;11.674;2022-12-17T15:06:06;90.28;;;27.58;;
60730;SDS011;46580;52.114;11.674;2022-12-17T15:08:33;102.80;;;30.95;;
60730;SDS011;46580;52.114;11.674;2022-12-17T15:11:03;83.47;;;27.27;;
60730;SDS011;46580;52.114;11.674;2022-12-17T15:13:31;79.53;;;24.23;;
60730;SDS011;46580;52.114;11.674;2022-12-17T15:15:58;70.57;;;22.83;;
60730;SDS011;46580;52.114;11.674;2022-12-17T15:18:26;56.95;;;22.55;;
60730;SDS011;46580;52.114;11.674;2022-12-17T15:20:52;73.53;;;23.63;;
60730;SDS011;46580;52.114;11.674;2022-12-17T15:23:18;85.93;;;26.43;;
60730;SDS011;46580;52.114;11.674;2022-12-17T15:25:46;78.07;;;21.83;;
60730;SDS011;46580;52.114;11.674;2022-12-17T15:28:13;66.13;;;18.85;;
60730;SDS011;46580;52.114;11.674;2022-12-17T15:30:40;60.08;;;19.75;;
60730;SDS011;46580;52.114;11.674;2022-12-17T15:33:06;86.23;;;23.27;;
60730;SDS011;46580;52.114;11.674;2022-12-17T15:35:32;72.28;;;21.65;;
60730;SDS011;46580;52.114;11.674;2022-12-17T15:37:58;69.68;;;22.83;;
60730;SDS011;46580;52.114;11.674;2022-12-17T15:40:24;69.00;;;19.50;;
60730;SDS011;46580;52.114;11.674;2022-12-17T15:42:49;49.57;;;15.97;;
60730;SDS011;46580;52.114;11.674;2022-12-17T15:45:37;57.08;;;19.20;;
60730;SDS011;46580;52.114;11.674;2022-12-17T15:48:03;71.53;;;20.85;;
60730;SDS011;46580;52.114;11.674;2022-12-17T15:50:31;70.63;;;23.63;;
60730;SDS011;46580;52.114;11.674;2022-12-17T15:52:56;60.28;;;18.05;;
60730;SDS011;46580;52.114;11.674;2022-12-17T15:55:21;65.67;;;18.00;;
60730;SDS011;46580;52.114;11.674;2022-12-17T15:57:48;55.83;;;18.50;;
60730;SDS011;46580;52.114;11.674;2022-12-17T16:00:13;47.43;;;19.07;;
60730;SDS011;46580;52.114;11.674;2022-12-17T16:02:39;61.23;;;19.47;;
60730;SDS011;46580;52.114;11.674;2022-12-17T16:05:11;66.07;;;19.55;;
60730;SDS011;46580;52.114;11.674;2022-12-17T16:07:38;64.55;;;19.42;;
60730;SDS011;46580;52.114;11.674;2022-12-17T16:10:04;73.30;;;19.03;;
60730;SDS011;46580;52.114;11.674;2022-12-17T16:12:30;73.35;;;23.10;;
60730;SDS011;46580;52.114;11.674;2022-12-17T16:14:56;65.27;;;20.50;;
60730;SDS011;46580;52.114;11.674;2022-12-17T16:17:22;69.23;;;21.53;;
60730;SDS011;46580;52.114;11.674;2022-12-17T16:19:47;70.87;;;20.90;;
60730;SDS011;46580;52.114;11.674;2022-12-17T16:22:12;65.00;;;21.20;;
60730;SDS011;46580;52.114;11.674;2022-12-17T16:24:40;63.28;;;21.38;;
60730;SDS011;46580;52.114;11.674;2022-12-17T16:27:06;57.60;;;18.33;;
60730;SDS011;46580;52.114;11.674;2022-12-17T16:29:31;69.43;;;20.00;;
60730;SDS011;46580;52.114;11.674;2022-12-17T16:31:57;67.27;;;18.27;;
60730;SDS011;46580;52.114;11.674;2022-12-17T16:34:23;57.35;;;19.10;;
60730;SDS011;46580;52.114;11.674;2022-12-17T16:36:49;56.87;;;15.53;;
60730;SDS011;46580;52.114;11.674;2022-12-17T16:39:17;59.50;;;18.08;;
60730;SDS011;46580;52.114;11.674;2022-12-17T16:41:43;49.25;;;16.33;;
60730;SDS011;46580;52.114;11.674;2022-12-17T16:44:09;50.83;;;16.77;;
60730;SDS011;46580;52.114;11.674;2022-12-17T16:46:35;72.57;;;21.23;;
60730;SDS011;46580;52.114;11.674;2022-12-17T16:49:05;60.55;;;18.08;;
60730;SDS011;46580;52.114;11.674;2022-12-17T16:51:44;55.33;;;17.83;;
60730;SDS011;46580;52.114;11.674;2022-12-17T16:54:14;59.83;;;19.42;;
60730;SDS011;46580;52.114;11.674;2022-12-17T16:56:44;46.85;;;17.05;;
60730;SDS011;46580;52.114;11.674;2022-12-17T16:59:14;52.85;;;17.65;;
60730;SDS011;46580;52.114;11.674;2022-12-17T17:01:42;55.63;;;18.00;;
60730;SDS011;46580;52.114;11.674;2022-12-17T17:04:09;57.75;;;17.90;;
60730;SDS011;46580;52.114;11.674;2022-12-17T17:06:38;61.55;;;19.73;;
60730;SDS011;46580;52.114;11.674;2022-12-17T17:09:05;47.92;;;15.77;;
60730;SDS011;46580;52.114;11.674;2022-12-17T17:11:31;60.05;;;18.55;;